createdAt,value
2022-11-16T00:00:21.470Z,100.00
2022-11-16T00:01:26.542Z,100.00
2022-11-16T00:02:29.191Z,100.00
2022-11-16T00:03:33.156Z,100.00
2022-11-16T00:04:36.087Z,100.00
2022-11-16T00:05:38.797Z,100.00
2022-11-16T00:06:41.429Z,100.00
2022-11-16T00:07:44.124Z,100.00
2022-11-16T00:09:10.194Z,100.00
2022-11-16T00:10:13.013Z,100.00
2022-11-16T00:11:19.205Z,100.00
2022-11-16T00:12:21.936Z,100.00
2022-11-16T00:13:24.550Z,100.00
2022-11-16T00:14:30.510Z,100.00
2022-11-16T00:15:33.264Z,100.00
2022-11-16T00:16:36.128Z,100.00
2022-11-16T00:17:39.332Z,100.00
2022-11-16T00:18:42.571Z,100.00
2022-11-16T00:19:45.379Z,100.00
2022-11-16T00:20:47.978Z,100.00
2022-11-16T00:21:51.344Z,100.00
2022-11-16T00:22:53.935Z,100.00
2022-11-16T00:23:56.746Z,100.00
2022-11-16T00:24:59.327Z,100.00
2022-11-16T00:26:04.984Z,100.00
2022-11-16T00:27:07.578Z,100.00
2022-11-16T00:28:10.490Z,100.00
2022-11-16T00:29:21.357Z,100.00
2022-11-16T00:30:23.882Z,100.00
2022-11-16T00:31:26.508Z,100.00
2022-11-16T00:32:29.813Z,100.00
2022-11-16T00:33:33.481Z,100.00
2022-11-16T00:34:44.788Z,100.00
2022-11-16T00:35:47.511Z,100.00
2022-11-16T00:36:50.913Z,100.00
2022-11-16T00:37:53.664Z,100.00
2022-11-16T00:38:56.376Z,100.00
2022-11-16T00:39:59.087Z,100.00
2022-11-16T00:41:02.010Z,100.00
2022-11-16T00:42:04.658Z,100.00
2022-11-16T00:43:07.343Z,100.00
2022-11-16T00:44:11.199Z,100.00
2022-11-16T00:45:14.058Z,100.00
2022-11-16T00:46:16.931Z,100.00
2022-11-16T00:47:19.626Z,100.00
2022-11-16T00:48:22.559Z,100.00
2022-11-16T00:49:25.223Z,100.00
2022-11-16T00:50:27.836Z,100.00
2022-11-16T00:51:30.831Z,100.00
2022-11-16T00:52:33.446Z,100.00
2022-11-16T00:53:37.019Z,100.00
2022-11-16T00:54:39.618Z,100.00
2022-11-16T00:55:44.576Z,100.00
2022-11-16T00:56:47.161Z,100.00
2022-11-16T00:57:49.934Z,100.00
2022-11-16T00:58:52.892Z,100.00
2022-11-16T00:59:55.589Z,100.00
2022-11-16T01:01:04.535Z,100.00
2022-11-16T01:02:07.329Z,100.00
2022-11-16T01:03:10.423Z,100.00
2022-11-16T01:04:13.223Z,100.00
2022-11-16T01:05:15.943Z,100.00
2022-11-16T01:06:19.257Z,100.00
2022-11-16T01:07:22.081Z,100.00
2022-11-16T01:08:24.775Z,100.00
2022-11-16T01:09:27.610Z,100.00
2022-11-16T01:10:30.497Z,100.00
2022-11-16T01:11:51.733Z,100.00
2022-11-16T01:12:55.611Z,100.00
2022-11-16T01:13:58.297Z,100.00
2022-11-16T01:15:01.448Z,100.00
2022-11-16T01:16:04.425Z,100.00
2022-11-16T01:17:07.304Z,100.00
2022-11-16T01:18:09.942Z,100.00
2022-11-16T01:19:12.961Z,100.00
2022-11-16T01:20:29.777Z,100.00
2022-11-16T01:21:32.659Z,100.00
2022-11-16T01:22:35.944Z,100.00
2022-11-16T01:23:38.688Z,100.00
2022-11-16T01:24:41.470Z,100.00
2022-11-16T01:25:44.162Z,100.00
2022-11-16T01:26:46.781Z,100.00
2022-11-16T01:27:49.590Z,100.00
2022-11-16T01:28:53.199Z,100.00
2022-11-16T01:29:56.039Z,100.00
2022-11-16T01:30:58.744Z,100.00
2022-11-16T01:32:01.644Z,100.00
2022-11-16T01:33:04.284Z,100.00
2022-11-16T01:34:06.954Z,100.00
2022-11-16T01:35:15.228Z,100.00
2022-11-16T01:36:18.159Z,100.00
2022-11-16T01:37:20.793Z,100.00
2022-11-16T01:38:28.455Z,100.00
2022-11-16T01:39:32.450Z,100.00
2022-11-16T01:40:35.160Z,100.00
2022-11-16T01:41:39.484Z,100.00
2022-11-16T01:42:42.391Z,100.00
2022-11-16T01:44:05.893Z,100.00
2022-11-16T01:45:31.602Z,100.00
2022-11-16T01:46:34.649Z,100.00
2022-11-16T01:47:37.402Z,100.00
2022-11-16T01:48:40.091Z,100.00
2022-11-16T01:50:06.459Z,100.00
2022-11-16T01:51:09.763Z,100.00
2022-11-16T01:52:17.319Z,100.00
2022-11-16T01:53:20.576Z,100.00
2022-11-16T01:54:24.243Z,100.00
2022-11-16T01:55:29.034Z,100.00
2022-11-16T01:56:35.209Z,100.00
2022-11-16T01:57:42.657Z,100.00
2022-11-16T01:58:46.274Z,100.00
2022-11-16T01:59:52.962Z,100.00
2022-11-16T02:00:55.747Z,100.00
2022-11-16T02:02:03.119Z,100.00
2022-11-16T02:03:05.873Z,100.00
2022-11-16T02:04:12.337Z,100.00
2022-11-16T02:05:19.517Z,100.00
2022-11-16T02:06:28.164Z,100.00
2022-11-16T02:07:59.495Z,100.00
2022-11-16T02:09:38.422Z,100.00
2022-11-16T02:11:03.948Z,100.00
2022-11-16T02:12:45.903Z,100.00
2022-11-16T02:14:29.029Z,100.00
2022-11-16T02:15:50.409Z,100.00
2022-11-16T02:17:23.939Z,100.00
2022-11-16T02:18:59.993Z,100.00
2022-11-16T02:20:39.611Z,100.00
2022-11-16T02:22:09.794Z,100.00
2022-11-16T02:23:43.623Z,100.00
2022-11-16T02:25:03.183Z,100.00
2022-11-16T02:26:14.804Z,100.00
2022-11-16T02:27:34.236Z,100.00
2022-11-16T02:28:42.823Z,100.00
2022-11-16T02:29:50.402Z,100.00
2022-11-16T02:30:56.360Z,100.00
2022-11-16T02:32:20.468Z,100.00
2022-11-16T02:33:27.825Z,100.00
2022-11-16T02:34:54.536Z,100.00
2022-11-16T02:36:00.958Z,100.00
2022-11-16T02:37:07.149Z,100.00
2022-11-16T02:38:17.440Z,100.00
2022-11-16T02:39:24.951Z,100.00
2022-11-16T02:40:31.989Z,100.00
2022-11-16T02:41:39.838Z,100.00
2022-11-16T02:42:49.061Z,100.00
2022-11-16T02:44:02.099Z,100.00
2022-11-16T02:45:09.207Z,100.00
2022-11-16T02:46:18.886Z,100.00
2022-11-16T02:47:29.306Z,100.00
2022-11-16T02:48:37.184Z,100.00
2022-11-16T02:49:45.406Z,100.00
2022-11-16T02:50:52.910Z,100.00
2022-11-16T02:51:56.625Z,100.00
2022-11-16T02:52:59.396Z,100.00
2022-11-16T02:54:21.805Z,100.00
2022-11-16T02:55:26.009Z,100.00
2022-11-16T02:56:30.166Z,100.00
2022-11-16T02:57:38.806Z,100.00
2022-11-16T02:58:41.560Z,100.00
2022-11-16T02:59:52.829Z,100.00
2022-11-16T03:01:40.485Z,100.00
2022-11-16T03:03:20.369Z,100.00
2022-11-16T03:04:42.329Z,100.00
2022-11-16T03:05:51.291Z,100.00
2022-11-16T03:06:56.758Z,100.00
2022-11-16T03:08:32.962Z,100.00
2022-11-16T03:09:38.412Z,100.00
2022-11-16T03:11:03.533Z,100.00
2022-11-16T03:12:10.207Z,100.00
2022-11-16T03:13:17.408Z,100.00
2022-11-16T03:14:24.090Z,100.00
2022-11-16T03:15:27.299Z,100.00
2022-11-16T03:17:00.172Z,100.00
2022-11-16T03:18:06.200Z,100.00
2022-11-16T03:19:17.455Z,100.00
2022-11-16T03:20:28.189Z,100.00
2022-11-16T03:21:37.877Z,100.00
2022-11-16T03:22:47.450Z,100.00
2022-11-16T03:23:50.929Z,100.00
2022-11-16T03:24:53.900Z,100.00
2022-11-16T03:25:58.490Z,100.00
2022-11-16T03:27:21.976Z,100.00
2022-11-16T03:28:34.619Z,100.00
2022-11-16T03:29:52.952Z,100.00
2022-11-16T03:31:01.221Z,100.00
2022-11-16T03:32:29.145Z,100.00
2022-11-16T03:33:45.938Z,100.00
2022-11-16T03:35:00.962Z,100.00
2022-11-16T03:36:10.890Z,100.00
2022-11-16T03:37:14.970Z,100.00
2022-11-16T03:38:19.289Z,100.00
2022-11-16T03:39:28.902Z,100.00
2022-11-16T03:40:34.592Z,100.00
2022-11-16T03:41:42.368Z,100.00
2022-11-16T03:42:49.822Z,100.00
2022-11-16T03:43:55.289Z,100.00
2022-11-16T03:44:58.535Z,100.00
2022-11-16T03:46:01.451Z,100.00
2022-11-16T03:47:04.768Z,100.00
2022-11-16T03:48:08.509Z,100.00
2022-11-16T03:49:11.249Z,100.00
2022-11-16T03:50:13.984Z,100.00
2022-11-16T03:51:16.694Z,100.00
2022-11-16T03:52:19.548Z,100.00
2022-11-16T03:53:22.235Z,100.00
2022-11-16T03:54:25.581Z,100.00
2022-11-16T03:55:28.447Z,100.00
2022-11-16T03:56:31.413Z,100.00
2022-11-16T03:57:34.263Z,100.00
2022-11-16T03:58:37.065Z,100.00
2022-11-16T03:59:39.770Z,100.00
2022-11-16T04:00:42.501Z,100.00
2022-11-16T04:01:45.572Z,100.00
2022-11-16T04:02:48.493Z,100.00
2022-11-16T04:03:51.208Z,100.00
2022-11-16T04:05:12.782Z,100.00
2022-11-16T04:06:34.331Z,100.00
2022-11-16T04:07:55.614Z,100.00
2022-11-16T04:09:16.930Z,100.00
2022-11-16T04:10:38.250Z,100.00
2022-11-16T04:11:59.408Z,100.00
2022-11-16T04:13:21.650Z,100.00
2022-11-16T04:14:44.492Z,100.00
2022-11-16T04:16:25.811Z,100.00
2022-11-16T04:17:46.932Z,100.00
2022-11-16T04:19:08.288Z,100.00
2022-11-16T04:20:31.542Z,100.00
2022-11-16T04:21:57.490Z,100.00
2022-11-16T04:23:33.821Z,100.00
2022-11-16T04:24:40.247Z,100.00
2022-11-16T04:25:44.574Z,100.00
2022-11-16T04:27:11.816Z,100.00
2022-11-16T04:28:16.856Z,100.00
2022-11-16T04:29:20.132Z,100.00
2022-11-16T04:30:22.886Z,100.00
2022-11-16T04:31:44.406Z,100.00
2022-11-16T04:33:05.652Z,100.00
2022-11-16T04:34:27.318Z,100.00
2022-11-16T04:35:48.657Z,100.00
2022-11-16T04:37:10.210Z,100.00
2022-11-16T04:38:13.392Z,100.00
2022-11-16T04:39:16.158Z,100.00
2022-11-16T04:40:21.287Z,100.00
2022-11-16T04:41:42.872Z,100.00
2022-11-16T04:42:53.988Z,100.00
2022-11-16T04:43:58.123Z,100.00
2022-11-16T04:45:23.693Z,100.00
2022-11-16T04:46:45.347Z,100.00
2022-11-16T04:47:52.149Z,100.00
2022-11-16T04:48:54.769Z,100.00
2022-11-16T04:49:57.760Z,100.00
2022-11-16T04:51:00.471Z,100.00
2022-11-16T04:52:03.418Z,100.00
2022-11-16T04:53:07.298Z,100.00
2022-11-16T04:54:10.032Z,100.00
2022-11-16T04:55:13.243Z,100.00
2022-11-16T04:56:16.600Z,100.00
2022-11-16T04:57:19.375Z,100.00
2022-11-16T04:58:22.124Z,100.00
2022-11-16T04:59:25.216Z,100.00
2022-11-16T05:00:28.581Z,100.00
2022-11-16T05:01:49.750Z,100.00
2022-11-16T05:02:55.705Z,100.00
2022-11-16T05:04:02.595Z,100.00
2022-11-16T05:05:05.754Z,100.00
2022-11-16T05:06:08.336Z,100.00
2022-11-16T05:07:14.048Z,100.00
2022-11-16T05:08:16.843Z,100.00
2022-11-16T05:09:19.581Z,100.00
2022-11-16T05:10:22.351Z,100.00
2022-11-16T05:11:25.088Z,100.00
2022-11-16T05:12:28.638Z,100.00
2022-11-16T05:13:31.282Z,100.00
2022-11-16T05:14:34.025Z,100.00
2022-11-16T05:15:36.877Z,100.00
2022-11-16T05:16:40.290Z,100.00
2022-11-16T05:17:43.195Z,100.00
2022-11-16T05:19:05.975Z,100.00
2022-11-16T05:20:29.237Z,100.00
2022-11-16T05:21:32.004Z,100.00
2022-11-16T05:22:35.665Z,100.00
2022-11-16T05:23:57.094Z,100.00
2022-11-16T05:25:00.384Z,100.00
2022-11-16T05:26:03.087Z,100.00
2022-11-16T05:27:14.438Z,100.00
2022-11-16T05:28:17.092Z,100.00
2022-11-16T05:29:19.738Z,100.00
2022-11-16T05:30:33.439Z,100.00
2022-11-16T05:31:40.346Z,100.00
2022-11-16T05:32:43.569Z,100.00
2022-11-16T05:33:46.337Z,100.00
2022-11-16T05:34:49.007Z,100.00
2022-11-16T05:35:52.057Z,100.00
2022-11-16T05:36:55.605Z,100.00
2022-11-16T05:37:58.210Z,100.00
2022-11-16T05:39:00.826Z,100.00
2022-11-16T05:40:04.504Z,100.00
2022-11-16T05:41:07.572Z,100.00
2022-11-16T05:42:11.001Z,100.00
2022-11-16T05:43:13.680Z,100.00
2022-11-16T05:44:16.871Z,100.00
2022-11-16T05:45:21.167Z,100.00
2022-11-16T05:46:25.224Z,100.00
2022-11-16T05:47:28.866Z,100.00
2022-11-16T05:48:31.642Z,100.00
2022-11-16T05:49:34.642Z,100.00
2022-11-16T05:50:42.334Z,100.00
2022-11-16T05:51:46.780Z,100.00
2022-11-16T05:52:49.583Z,100.00
2022-11-16T05:53:52.280Z,100.00
2022-11-16T05:54:54.900Z,100.00
2022-11-16T05:55:57.752Z,100.00
2022-11-16T05:57:00.565Z,100.00
2022-11-16T05:58:03.303Z,100.00
2022-11-16T05:59:07.832Z,100.00
2022-11-16T06:00:12.205Z,100.00
2022-11-16T06:01:14.973Z,100.00
2022-11-16T06:02:17.704Z,100.00
2022-11-16T06:03:20.515Z,100.00
2022-11-16T06:04:24.815Z,100.00
2022-11-16T06:05:27.623Z,100.00
2022-11-16T06:06:30.421Z,100.00
2022-11-16T06:07:38.989Z,100.00
2022-11-16T06:08:41.650Z,100.00
2022-11-16T06:09:44.662Z,100.00
2022-11-16T06:10:47.281Z,100.00
2022-11-16T06:11:49.906Z,100.00
2022-11-16T06:12:52.595Z,100.00
2022-11-16T06:13:55.285Z,100.00
2022-11-16T06:14:57.842Z,100.00
2022-11-16T06:16:09.065Z,100.00
2022-11-16T06:17:14.747Z,100.00
2022-11-16T06:18:17.439Z,100.00
2022-11-16T06:19:20.491Z,100.00
2022-11-16T06:20:23.119Z,100.00
2022-11-16T06:21:25.707Z,100.00
2022-11-16T06:22:28.283Z,100.00
2022-11-16T06:23:30.917Z,100.00
2022-11-16T06:24:33.715Z,100.00
2022-11-16T06:25:39.261Z,100.00
2022-11-16T06:26:41.947Z,100.00
2022-11-16T06:27:45.308Z,100.00
2022-11-16T06:28:47.977Z,100.00
2022-11-16T06:29:50.631Z,100.00
2022-11-16T06:30:53.298Z,100.00
2022-11-16T06:31:56.038Z,100.00
2022-11-16T06:32:59.097Z,100.00
2022-11-16T06:34:01.729Z,100.00
2022-11-16T06:35:04.882Z,100.00
2022-11-16T06:36:08.243Z,100.00
2022-11-16T06:37:10.818Z,100.00
2022-11-16T06:38:18.664Z,100.00
2022-11-16T06:39:21.965Z,100.00
2022-11-16T06:40:25.478Z,100.00
2022-11-16T06:41:28.170Z,100.00
2022-11-16T06:42:30.803Z,100.00
2022-11-16T06:43:33.636Z,100.00
2022-11-16T06:44:36.971Z,100.00
2022-11-16T06:45:39.752Z,100.00
2022-11-16T06:46:42.404Z,100.00
2022-11-16T06:47:45.085Z,100.00
2022-11-16T06:48:47.676Z,100.00
2022-11-16T06:49:50.415Z,100.00
2022-11-16T06:50:53.274Z,100.00
2022-11-16T06:51:55.926Z,100.00
2022-11-16T06:53:01.057Z,100.00
2022-11-16T06:54:03.767Z,100.00
2022-11-16T06:55:07.166Z,100.00
2022-11-16T06:56:13.907Z,100.00
2022-11-16T06:57:16.625Z,100.00
2022-11-16T06:58:19.307Z,100.00
2022-11-16T06:59:21.912Z,100.00
2022-11-16T07:00:24.673Z,100.00
2022-11-16T07:01:27.302Z,100.00
2022-11-16T07:02:30.074Z,100.00
2022-11-16T07:03:32.909Z,100.00
2022-11-16T07:04:35.556Z,100.00
2022-11-16T07:05:42.273Z,100.00
2022-11-16T07:06:44.832Z,100.00
2022-11-16T07:07:48.150Z,100.00
2022-11-16T07:08:51.109Z,100.00
2022-11-16T07:09:57.011Z,100.00
2022-11-16T07:11:04.392Z,100.00
2022-11-16T07:12:07.289Z,100.00
2022-11-16T07:13:10.020Z,100.00
2022-11-16T07:14:12.734Z,100.00
2022-11-16T07:15:15.482Z,100.00
2022-11-16T07:16:18.380Z,100.00
2022-11-16T07:17:21.157Z,100.00
2022-11-16T07:18:23.957Z,100.00
2022-11-16T07:19:26.700Z,100.00
2022-11-16T07:20:29.432Z,100.00
2022-11-16T07:21:32.518Z,100.00
2022-11-16T07:22:35.113Z,100.00
2022-11-16T07:23:38.259Z,100.00
2022-11-16T07:24:40.850Z,100.00
2022-11-16T07:25:46.946Z,100.00
2022-11-16T07:26:49.837Z,100.00
2022-11-16T07:27:52.496Z,100.00
2022-11-16T07:28:56.004Z,100.00
2022-11-16T07:29:58.796Z,100.00
2022-11-16T07:31:06.368Z,100.00
2022-11-16T07:32:09.087Z,100.00
2022-11-16T07:33:11.779Z,100.00
2022-11-16T07:34:14.361Z,100.00
2022-11-16T07:35:17.077Z,100.00
2022-11-16T07:36:20.282Z,100.00
2022-11-16T07:37:23.124Z,100.00
2022-11-16T07:38:25.767Z,100.00
2022-11-16T07:39:29.154Z,100.00
2022-11-16T07:40:31.779Z,100.00
2022-11-16T07:41:34.396Z,100.00
2022-11-16T07:42:37.181Z,100.00
2022-11-16T07:43:40.570Z,100.00
2022-11-16T07:44:43.166Z,100.00
2022-11-16T07:45:45.909Z,100.00
2022-11-16T07:46:48.926Z,100.00
2022-11-16T07:47:53.793Z,100.00
2022-11-16T07:48:57.628Z,100.00
2022-11-16T07:50:00.305Z,100.00
2022-11-16T07:51:04.987Z,100.00
2022-11-16T07:52:11.080Z,100.00
2022-11-16T07:53:13.793Z,100.00
2022-11-16T07:54:16.616Z,100.00
2022-11-16T07:55:19.329Z,100.00
2022-11-16T07:56:22.409Z,100.00
2022-11-16T07:57:25.327Z,100.00
2022-11-16T07:58:29.809Z,100.00
2022-11-16T07:59:32.591Z,100.00
2022-11-16T08:00:39.062Z,100.00
2022-11-16T08:01:41.702Z,100.00
2022-11-16T08:02:44.343Z,100.00
2022-11-16T08:03:47.044Z,100.00
2022-11-16T08:04:50.416Z,100.00
2022-11-16T08:06:00.412Z,100.00
2022-11-16T08:07:03.104Z,100.00
2022-11-16T08:08:06.261Z,100.00
2022-11-16T08:09:09.643Z,100.00
2022-11-16T08:10:12.848Z,100.00
2022-11-16T08:11:15.527Z,100.00
2022-11-16T08:12:18.232Z,100.00
2022-11-16T08:13:20.843Z,100.00
2022-11-16T08:14:23.332Z,100.00
2022-11-16T08:15:26.095Z,100.00
2022-11-16T08:16:29.433Z,100.00
2022-11-16T08:17:32.649Z,100.00
2022-11-16T08:18:36.643Z,100.00
2022-11-16T08:19:40.438Z,100.00
2022-11-16T08:20:43.257Z,100.00
2022-11-16T08:21:46.003Z,100.00
2022-11-16T08:22:49.962Z,100.00
2022-11-16T08:23:57.845Z,100.00
2022-11-16T08:25:01.157Z,100.00
2022-11-16T08:26:13.245Z,100.00
2022-11-16T08:27:17.737Z,100.00
2022-11-16T08:28:20.484Z,100.00
2022-11-16T08:29:23.284Z,100.00
2022-11-16T08:30:26.640Z,100.00
2022-11-16T08:31:30.121Z,100.00
2022-11-16T08:32:32.741Z,100.00
2022-11-16T08:33:35.436Z,100.00
2022-11-16T08:34:38.055Z,100.00
2022-11-16T08:35:40.699Z,100.00
2022-11-16T08:36:43.310Z,100.00
2022-11-16T08:37:46.779Z,100.00
2022-11-16T08:38:51.066Z,100.00
2022-11-16T08:39:54.624Z,100.00
2022-11-16T08:40:57.269Z,100.00
2022-11-16T08:42:03.054Z,100.00
2022-11-16T08:43:05.650Z,100.00
2022-11-16T08:44:08.391Z,100.00
2022-11-16T08:45:11.054Z,100.00
2022-11-16T08:46:14.679Z,100.00
2022-11-16T08:47:17.427Z,100.00
2022-11-16T08:48:20.124Z,100.00
2022-11-16T08:49:23.069Z,100.00
2022-11-16T08:50:26.383Z,100.00
2022-11-16T08:51:29.070Z,100.00
2022-11-16T08:52:31.594Z,100.00
2022-11-16T08:53:34.241Z,100.00
2022-11-16T08:54:36.868Z,100.00
2022-11-16T08:55:39.528Z,100.00
2022-11-16T08:56:42.188Z,100.00
2022-11-16T08:57:45.591Z,100.00
2022-11-16T08:58:52.524Z,100.00
2022-11-16T08:59:58.023Z,100.00
2022-11-16T09:01:08.217Z,100.00
2022-11-16T09:02:11.017Z,100.00
2022-11-16T09:03:13.545Z,100.00
2022-11-16T09:04:16.993Z,100.00
2022-11-16T09:05:19.601Z,100.00
2022-11-16T09:06:24.043Z,100.00
2022-11-16T09:07:26.894Z,100.00
2022-11-16T09:08:29.634Z,100.00
2022-11-16T09:09:32.444Z,100.00
2022-11-16T09:10:35.001Z,100.00
2022-11-16T09:11:38.023Z,100.00
2022-11-16T09:12:40.683Z,100.00
2022-11-16T09:13:44.839Z,100.00
2022-11-16T09:14:47.634Z,100.00
2022-11-16T09:15:59.072Z,100.00
2022-11-16T09:17:01.841Z,100.00
2022-11-16T09:18:04.496Z,100.00
2022-11-16T09:19:07.121Z,100.00
2022-11-16T09:20:14.035Z,100.00
2022-11-16T09:21:21.661Z,100.00
2022-11-16T09:22:24.471Z,100.00
2022-11-16T09:23:27.181Z,100.00
2022-11-16T09:24:29.776Z,100.00
2022-11-16T09:25:32.411Z,100.00
2022-11-16T09:26:35.143Z,100.00
2022-11-16T09:27:38.184Z,100.00
2022-11-16T09:28:41.291Z,100.00
2022-11-16T09:29:44.128Z,100.00
2022-11-16T09:30:48.826Z,100.00
2022-11-16T09:31:51.530Z,100.00
2022-11-16T09:32:54.192Z,100.00
2022-11-16T09:33:59.121Z,100.00
2022-11-16T09:35:01.888Z,100.00
2022-11-16T09:36:07.352Z,100.00
2022-11-16T09:37:09.952Z,100.00
2022-11-16T09:38:17.653Z,100.00
2022-11-16T09:39:31.979Z,100.00
2022-11-16T09:40:38.884Z,100.00
2022-11-16T09:42:03.847Z,100.00
2022-11-16T09:43:29.299Z,100.00
2022-11-16T09:45:01.468Z,100.00
2022-11-16T09:46:21.068Z,100.00
2022-11-16T09:47:38.767Z,100.00
2022-11-16T09:48:41.868Z,100.00
2022-11-16T09:49:51.689Z,100.00
2022-11-16T09:51:01.991Z,100.00
2022-11-16T09:52:11.674Z,100.00
2022-11-16T09:53:39.289Z,100.00
2022-11-16T09:54:45.335Z,100.00
2022-11-16T09:56:10.662Z,100.00
2022-11-16T09:57:19.472Z,100.00
2022-11-16T09:58:31.981Z,100.00
2022-11-16T09:59:49.074Z,100.00
2022-11-16T10:01:00.366Z,100.00
2022-11-16T10:02:21.597Z,100.00
2022-11-16T10:03:25.510Z,100.00
2022-11-16T10:04:58.018Z,100.00
2022-11-16T10:06:05.609Z,100.00
2022-11-16T10:07:12.519Z,100.00
2022-11-16T10:08:43.332Z,100.00
2022-11-16T10:09:47.714Z,100.00
2022-11-16T10:11:27.832Z,100.00
2022-11-16T10:12:49.265Z,100.00
2022-11-16T10:14:03.731Z,100.00
2022-11-16T10:15:25.067Z,100.00
2022-11-16T10:16:56.704Z,100.00
2022-11-16T10:18:05.483Z,100.00
2022-11-16T10:19:29.742Z,100.00
2022-11-16T10:20:55.004Z,100.00
2022-11-16T10:22:23.782Z,100.00
2022-11-16T10:23:46.690Z,100.00
2022-11-16T10:25:07.457Z,100.00
2022-11-16T10:26:32.306Z,100.00
2022-11-16T10:27:44.699Z,100.00
2022-11-16T10:29:05.366Z,100.00
2022-11-16T10:30:09.851Z,100.00
2022-11-16T10:31:41.424Z,100.00
2022-11-16T10:33:10.921Z,100.00
2022-11-16T10:34:28.756Z,100.00
2022-11-16T10:35:40.148Z,100.00
2022-11-16T10:36:43.015Z,100.00
2022-11-16T10:37:49.656Z,100.00
2022-11-16T10:38:56.093Z,100.00
2022-11-16T10:39:59.187Z,100.00
2022-11-16T10:41:14.219Z,100.00
2022-11-16T10:42:23.981Z,100.00
2022-11-16T10:43:32.719Z,100.00
2022-11-16T10:45:02.857Z,100.00
2022-11-16T10:46:22.548Z,100.00
2022-11-16T10:47:34.900Z,100.00
2022-11-16T10:48:43.356Z,100.00
2022-11-16T10:50:01.313Z,100.00
2022-11-16T10:51:05.754Z,100.00
2022-11-16T10:52:08.525Z,100.00
2022-11-16T10:53:16.340Z,100.00
2022-11-16T10:54:18.954Z,100.00
2022-11-16T10:55:24.739Z,100.00
2022-11-16T10:56:40.058Z,100.00
2022-11-16T10:57:58.073Z,100.00
2022-11-16T10:59:12.587Z,100.00
2022-11-16T11:00:34.948Z,100.00
2022-11-16T11:01:44.726Z,100.00
2022-11-16T11:02:49.055Z,100.00
2022-11-16T11:03:51.706Z,100.00
2022-11-16T11:05:06.347Z,100.00
2022-11-16T11:06:11.938Z,100.00
2022-11-16T11:07:32.164Z,100.00
2022-11-16T11:08:34.899Z,100.00
2022-11-16T11:09:39.586Z,100.00
2022-11-16T11:10:42.876Z,100.00
2022-11-16T11:12:30.943Z,100.00
2022-11-16T11:13:35.055Z,100.00
2022-11-16T11:14:37.956Z,100.00
2022-11-16T11:15:44.903Z,100.00
2022-11-16T11:16:53.181Z,100.00
2022-11-16T11:18:17.490Z,100.00
2022-11-16T11:19:30.279Z,100.00
2022-11-16T11:20:39.112Z,100.00
2022-11-16T11:21:47.669Z,100.00
2022-11-16T11:22:58.125Z,100.00
2022-11-16T11:24:29.780Z,100.00
2022-11-16T11:25:34.562Z,100.00
2022-11-16T11:26:40.333Z,100.00
2022-11-16T11:27:43.325Z,100.00
2022-11-16T11:28:49.836Z,100.00
2022-11-16T11:29:55.428Z,100.00
2022-11-16T11:31:09.686Z,100.00
2022-11-16T11:32:23.524Z,100.00
2022-11-16T11:33:48.076Z,100.00
2022-11-16T11:34:53.767Z,100.00
2022-11-16T11:36:01.110Z,100.00
2022-11-16T11:37:12.069Z,100.00
2022-11-16T11:38:16.300Z,100.00
2022-11-16T11:39:18.885Z,100.00
2022-11-16T11:40:28.739Z,100.00
2022-11-16T11:41:40.188Z,100.00
2022-11-16T11:42:53.235Z,100.00
2022-11-16T11:44:15.197Z,100.00
2022-11-16T11:45:19.661Z,100.00
2022-11-16T11:46:50.222Z,100.00
2022-11-16T11:48:17.316Z,100.00
2022-11-16T11:49:30.449Z,100.00
2022-11-16T11:50:47.708Z,100.00
2022-11-16T11:51:52.521Z,100.00
2022-11-16T11:53:00.670Z,100.00
2022-11-16T11:54:05.111Z,100.00
2022-11-16T11:55:08.862Z,100.00
2022-11-16T11:56:12.889Z,100.00
2022-11-16T11:57:23.439Z,100.00
2022-11-16T11:58:35.769Z,100.00
2022-11-16T11:59:38.602Z,100.00
2022-11-16T12:00:53.079Z,100.00
2022-11-16T12:02:26.596Z,100.00
2022-11-16T12:03:44.294Z,100.00
2022-11-16T12:05:08.482Z,100.00
2022-11-16T12:06:23.097Z,100.00
2022-11-16T12:07:32.021Z,100.00
2022-11-16T12:08:53.311Z,100.00
2022-11-16T12:10:24.201Z,100.00
2022-11-16T12:11:42.644Z,100.00
2022-11-16T12:13:01.920Z,100.00
2022-11-16T12:14:10.522Z,100.00
2022-11-16T12:15:54.688Z,100.00
2022-11-16T12:17:12.352Z,100.00
2022-11-16T12:18:46.464Z,100.00
2022-11-16T12:19:59.704Z,100.00
2022-11-16T12:21:23.110Z,100.00
2022-11-16T12:22:47.082Z,100.00
2022-11-16T12:24:26.584Z,100.00
2022-11-16T12:25:50.453Z,100.00
2022-11-16T12:27:27.276Z,100.00
2022-11-16T12:28:51.087Z,100.00
2022-11-16T12:30:18.346Z,100.00
2022-11-16T12:31:39.594Z,100.00
2022-11-16T12:32:54.360Z,100.00
2022-11-16T12:34:11.476Z,100.00
2022-11-16T12:35:36.250Z,100.00
2022-11-16T12:36:53.637Z,100.00
2022-11-16T12:38:08.928Z,100.00
2022-11-16T12:39:35.793Z,100.00
2022-11-16T12:40:59.182Z,100.00
2022-11-16T12:42:25.971Z,100.00
2022-11-16T12:43:36.316Z,100.00
2022-11-16T12:45:02.005Z,100.00
2022-11-16T12:46:56.960Z,100.00
2022-11-16T12:47:59.443Z,100.00
2022-11-16T12:49:21.371Z,100.00
2022-11-16T12:50:45.577Z,100.00
2022-11-16T12:52:17.465Z,100.00
2022-11-16T12:53:26.415Z,100.00
2022-11-16T12:55:27.182Z,100.00
2022-11-16T12:56:48.500Z,100.00
2022-11-16T12:58:19.119Z,100.00
2022-11-16T12:59:39.864Z,100.00
2022-11-16T13:00:45.571Z,100.00
2022-11-16T13:02:18.261Z,100.00
2022-11-16T13:03:33.875Z,100.00
2022-11-16T13:04:52.097Z,100.00
2022-11-16T13:06:03.810Z,100.00
2022-11-16T13:07:19.939Z,100.00
2022-11-16T13:08:57.467Z,100.00
2022-11-16T13:10:29.347Z,100.00
2022-11-16T13:11:39.444Z,100.00
2022-11-16T13:12:44.877Z,100.00
2022-11-16T13:13:53.726Z,100.00
2022-11-16T13:15:00.345Z,100.00
2022-11-16T13:16:05.721Z,100.00
2022-11-16T13:17:10.744Z,100.00
2022-11-16T13:18:20.748Z,100.00
2022-11-16T13:19:24.097Z,100.00
2022-11-16T13:20:44.682Z,100.00
2022-11-16T13:21:55.741Z,100.00
2022-11-16T13:23:16.434Z,100.00
2022-11-16T13:24:40.469Z,100.00
2022-11-16T13:25:48.696Z,100.00
2022-11-16T13:27:07.068Z,100.00
2022-11-16T13:28:47.716Z,100.00
2022-11-16T13:29:57.956Z,100.00
2022-11-16T13:31:14.010Z,100.00
2022-11-16T13:32:19.384Z,100.00
2022-11-16T13:33:32.853Z,100.00
2022-11-16T13:34:40.320Z,100.00
2022-11-16T13:35:43.054Z,100.00
2022-11-16T13:36:48.370Z,100.00
2022-11-16T13:37:52.344Z,100.00
2022-11-16T13:38:55.044Z,100.00
2022-11-16T13:39:57.678Z,100.00
2022-11-16T13:41:46.873Z,100.00
2022-11-16T13:43:10.185Z,100.00
2022-11-16T13:44:20.500Z,100.00
2022-11-16T13:45:23.954Z,100.00
2022-11-16T13:46:55.422Z,100.00
2022-11-16T13:48:01.577Z,100.00
2022-11-16T13:49:04.842Z,100.00
2022-11-16T13:50:19.147Z,100.00
2022-11-16T13:51:23.376Z,100.00
2022-11-16T13:53:28.334Z,100.00
2022-11-16T13:55:30.203Z,99.92
2022-11-16T13:56:49.043Z,96.60
2022-11-16T13:57:55.925Z,97.48
2022-11-16T13:58:59.163Z,96.46
2022-11-16T14:00:02.079Z,96.15
2022-11-16T14:01:11.003Z,95.87
2022-11-16T14:02:32.327Z,95.17
2022-11-16T14:03:40.355Z,93.42
2022-11-16T14:04:58.133Z,93.13
2022-11-16T14:06:00.885Z,95.21
2022-11-16T14:07:03.937Z,97.85
2022-11-16T14:08:24.889Z,98.54
2022-11-16T14:09:45.473Z,99.62
2022-11-16T14:10:50.851Z,100.00
2022-11-16T14:11:53.490Z,100.00
2022-11-16T14:12:57.164Z,100.00
2022-11-16T14:14:05.932Z,100.00
2022-11-16T14:15:20.790Z,100.00
2022-11-16T14:16:23.814Z,100.00
2022-11-16T14:17:54.602Z,100.00
2022-11-16T14:19:00.032Z,100.00
2022-11-16T14:20:02.847Z,100.00
2022-11-16T14:21:35.224Z,100.00
2022-11-16T14:22:59.664Z,100.00
2022-11-16T14:24:21.454Z,99.62
2022-11-16T14:25:39.073Z,97.38
2022-11-16T14:26:51.079Z,95.54